Latest Coastal Weather Observations for Port Augusta

IDS60701

Issued at 4:25 am CST Wednesday 30 July 2014 (issued every 10 minutes, with the page automatically refreshed every 10 minutes)

About coastal observations | Map of coastal stations | Coastal observations for SA | Marine services | Other Formats
Station Details ID: 018201 Name: PORT AUGUSTA AERO Lat: -32.51 Lon: 137.72 Height: 13.97 m
Data from the previous 72 hours. | See also: Recent months at Port Augusta
Date/Time
CST
Temp

°C
Wind Pressure Rain
since 9am
mm
Weather Cloud Vis
km
Sea
Height
m
Swell
Dir
 
Speed
knots
Gust
knots
hPa Trend Height
m
Period
s
Dir
30/04:00am 3.1 W 4 5 1021.1 - 0.0 - - - - - - -
30/03:30am 2.5 W 4 4 1021.4 - 0.0 - - - - - - -
30/03:00am 3.6 WSW 4 4 1021.5 - 0.0 - - - - - - -
30/02:30am 4.7 CALM 0 0 1021.6 - 0.0 - - - - - - -
30/02:00am 6.3 WSW 2 4 1021.8 - 0.0 - - - - - - -
30/01:30am 6.0 NNW 6 7 1022.1 - 0.0 - - - - - - -
30/01:00am 6.4 N 6 7 1022.1 - 0.0 - - - - - - -
30/12:30am 6.1 NE 1 5 1021.8 - 0.0 - - - - - - -
30/12:00am 7.0 ESE 2 3 1021.8 - 0.0 - - - - - - -
 
Date/Time
CST
Temp

°C
Wind Pressure Rain
since 9am
mm
Weather Cloud Vis
km
Sea
Height
m
Swell
Dir
 
Speed
knots
Gust
knots
hPa Trend Height
m
Period
s
Dir
29/11:30pm 8.7 N 3 5 1022.0 - 0.0 - - - - - - -
29/11:00pm 8.4 NNW 6 7 1022.1 - 0.0 - - - - - - -
29/10:30pm 8.8 NNW 6 7 1022.0 - 0.0 - - - - - - -
29/10:00pm 7.8 CALM 0 0 1021.9 - 0.0 - - - - - - -
29/09:30pm 9.2 NNW 3 5 1021.8 - 0.0 - - - - - - -
29/09:00pm 9.4 N 7 8 1021.5 - 0.0 - - - - - - -
29/08:30pm 9.7 NNW 8 9 1021.2 - 0.0 - - - - - - -
29/08:00pm 10.7 NNW 6 7 1021.0 - 0.0 - - - - - - -
29/07:30pm 12.5 NNW 2 3 1020.6 - 0.0 - - - - - - -
29/07:00pm 13.3 NNW 7 8 1020.3 - 0.0 - - - - - - -
29/06:30pm 14.3 NW 7 8 1019.9 - 0.0 - - - - - - -
29/06:00pm 16.9 NW 8 11 1019.6 - 0.0 - - - - - - -
29/05:30pm 18.8 WNW 8 11 1019.4 - 0.0 - - - - - - -
29/05:00pm 20.4 WNW 11 15 1019.1 - 0.0 - - - - - - -
29/04:30pm 21.2 WNW 14 19 1018.9 - 0.0 - - - - - - -
29/04:00pm 21.6 WNW 12 18 1018.6 - 0.0 - - - - - - -
29/03:30pm 21.5 W 14 19 1018.8 - 0.0 - - - - - - -
29/03:00pm 21.6 WNW 16 22 1018.7 - 0.0 - - - - - - -
29/02:30pm 21.3 W 15 19 1018.9 - 0.0 - - - - - - -
29/02:00pm 20.8 W 12 18 1019.1 - 0.0 - Partly cloudy - - - - -
29/01:30pm 20.0 W 12 18 1019.6 - 0.0 - - - - - - -
29/01:00pm 19.8 W 13 19 1019.9 - 0.0 - - - - - - -
29/12:30pm 19.6 WSW 15 22 1020.2 - 0.0 - - - - - - -
29/12:00pm 19.9 W 14 19 1020.6 - 0.0 - - - - - - -
29/11:30am 19.5 W 12 16 1021.1 - 0.0 - - - - - - -
29/11:00am 18.9 WNW 8 12 1021.3 - 0.0 - - - - - - -
29/10:30am 18.0 WNW 8 12 1021.4 - 0.0 - - - - - - -
29/10:00am 16.6 NNW 8 11 1021.1 - 0.0 - - - - - - -
29/09:30am 14.1 N 9 11 1021.2 - 0.0 - - - - - - -
29/09:00am 13.1 N 8 11 1021.2 - 0.0 - - - - - - -
29/08:30am 10.1 N 6 9 1021.0 - 0.0 - - - - - - -
29/08:00am 7.5 N 9 10 1020.2 - 0.0 - - - - - - -
29/07:30am 4.9 N 9 10 1020.8 - 0.0 - - - - - - -
29/07:00am 3.4 NNW 5 6 1020.9 - 0.0 - - - - - - -
29/06:30am 3.0 W 4 6 1020.9 - 0.0 - - - - - - -
29/06:00am 3.4 NNW 6 7 1020.2 - 0.0 - - - - - - -
29/05:30am 3.7 NW 6 7 1019.9 - 0.0 - - - - - - -
29/05:00am 4.6 NW 5 6 1019.8 - 0.0 - - - - - - -
29/04:30am 4.2 W 3 4 1019.7 - 0.0 - - - - - - -
29/04:00am 6.1 NW 4 5 1019.8 - 0.0 - - - - - - -
29/03:30am 6.2 NW 4 5 1019.6 - 0.0 - - - - - - -
29/03:00am 7.6 NNW 3 4 1019.3 - 0.0 - - - - - - -
29/02:30am 8.0 N 3 5 1019.4 - 0.0 - - - - - - -
29/02:00am 8.9 WNW 3 4 1019.4 - 0.0 - - - - - - -
29/01:30am 8.6 WNW 3 4 1019.7 - 0.0 - - - - - - -
29/01:00am 9.3 NW 5 7 1019.5 - 0.0 - - - - - - -
29/12:30am 9.9 CALM 0 0 1019.6 - 0.0 - - - - - - -
29/12:00am 10.4 SW 3 5 1019.7 - 0.0 - - - - - - -
 
Date/Time
CST
Temp

°C
Wind Pressure Rain
since 9am
mm
Weather Cloud Vis
km
Sea
Height
m
Swell
Dir
 
Speed
knots
Gust
knots
hPa Trend Height
m
Period
s
Dir
28/11:30pm 10.9 SW 3 4 1019.5 - 0.0 - - - - - - -
28/11:00pm 11.0 SW 3 5 1019.5 - 0.0 - - - - - - -
28/10:30pm 11.5 SSW 4 6 1019.5 - 0.0 - - - - - - -
28/10:00pm 12.7 ESE 3 5 1019.6 - 0.0 - - - - - - -
28/09:30pm 14.0 ESE 5 6 1019.4 - 0.0 - - - - - - -
28/09:00pm 12.8 ESE 5 6 1019.2 - 0.0 - - - - - - -
28/08:30pm 13.2 ESE 6 7 1019.0 - 0.0 - - - - - - -
28/08:00pm 14.0 ESE 6 8 1018.7 - 0.0 - - - - - - -
28/07:30pm 14.5 SE 6 8 1018.4 - 0.0 - - - - - - -
28/07:00pm 15.0 SE 7 9 1018.1 - 0.0 - Partly cloudy - - - - -
28/06:30pm 17.0 SW 7 9 1017.5 - 0.0 - - - - - - -
28/06:00pm 19.1 W 9 11 1017.0 - 0.0 - - - - - - -
28/05:30pm 21.5 WNW 12 15 1016.8 - 0.0 - - - - - - -
28/05:00pm 22.1 WNW 8 10 1016.7 - 0.0 - - - - - - -
28/04:30pm 22.9 WNW 11 15 1016.6 - 0.0 - - - - - - -
28/04:00pm 22.6 NW 14 20 1016.6 - 0.0 - - - - - - -
28/03:30pm 22.8 NW 13 18 1016.7 - 0.0 - - - - - - -
28/03:00pm 22.9 NNW 11 15 1016.8 - 0.0 - - - - - - -
28/02:30pm 23.0 NW 11 16 1016.9 - 0.0 - - - - - - -
28/02:00pm 23.2 NNW 11 15 1017.3 - 0.0 - Partly cloudy - - - - -
28/01:30pm 21.3 N 12 16 1017.8 - 0.0 - Partly cloudy - - - - -
28/01:00pm 21.7 NNW 13 17 1018.4 - 0.0 - - - - - - -
28/12:30pm 20.1 N 13 19 1018.9 - 0.0 - - - - - - -
28/12:00pm 19.7 NNW 14 19 1019.5 - 0.0 - - - - - - -
28/11:30am 19.2 N 13 19 1019.9 - 0.0 - - - - - - -
28/11:00am 17.5 N 14 19 1020.5 - 0.0 - - - - - - -
28/10:30am 16.7 NNW 12 16 1021.0 - 0.0 - - - - - - -
28/10:00am 15.5 N 11 15 1021.2 - 0.0 - - - - - - -
28/09:30am 14.7 N 9 12 1021.3 - 0.0 - - - - - - -
28/09:00am 13.0 NNW 8 11 1021.1 - 0.0 - - - - - - -
28/08:30am 10.8 NNW 7 11 1021.0 - 0.0 - - - - - - -
28/08:00am 8.3 NW 7 11 1021.0 - 0.0 - - - - - - -
28/07:30am 5.0 NW 7 9 1020.6 - 0.0 - - - - - - -
28/07:00am 4.8 WNW 6 7 1020.5 - 0.0 - - - - - - -
28/06:30am 6.0 NNW 5 6 1020.4 - 0.0 - - - - - - -
28/06:00am 6.3 N 7 9 1020.2 - 0.0 - - - - - - -
28/05:30am 7.4 NW 6 7 1020.2 - 0.0 - - - - - - -
28/05:00am 7.3 WNW 8 8 1020.4 - 0.0 - - - - - - -
28/04:30am 7.2 WNW 6 7 1020.2 - 0.0 - - - - - - -
28/04:00am 7.7 NNW 6 7 1020.2 - 0.0 - - - - - - -
28/03:30am 6.3 N 5 7 1020.3 - 0.0 - - - - - - -
28/03:00am 6.6 NNW 6 7 1020.5 - 0.0 - - - - - - -
28/02:30am 6.6 NNW 7 8 1020.6 - 0.0 - - - - - - -
28/02:00am 5.4 W 6 7 1020.7 - 0.0 - - - - - - -
28/01:30am 5.0 W 6 8 1020.4 - 0.0 - - - - - - -
28/01:00am 7.0 WNW 5 5 1020.4 - 0.0 - - - - - - -
28/12:30am 7.5 WNW 7 8 1020.8 - 0.0 - - - - - - -
28/12:00am 8.1 NW 5 6 1020.9 - 0.0 - - - - - - -
 
Date/Time
CST
Temp

°C
Wind Pressure Rain
since 9am
mm
Weather Cloud Vis
km
Sea
Height
m
Swell
Dir
 
Speed
knots
Gust
knots
hPa Trend Height
m
Period
s
Dir
27/11:30pm 6.8 W 5 6 1021.0 - 0.0 - - - - - - -
27/11:00pm 7.5 W 5 6 1021.1 - 0.0 - - - - - - -
27/10:30pm 10.1 WNW 5 6 1021.2 - 0.0 - - - - - - -
27/10:00pm 10.6 W 6 8 1021.2 - 0.0 - - - - - - -
27/09:30pm 11.1 NW 6 8 1021.2 - 0.0 - - - - - - -
27/09:00pm 12.6 NNW 7 11 1021.2 - 0.0 - - - - - - -
27/08:30pm 10.5 N 7 8 1021.0 - 0.0 - - - - - - -
27/08:00pm 11.1 N 7 9 1021.0 - 0.0 - - - - - - -
27/07:30pm 11.3 N 8 9 1020.9 - 0.0 - - - - - - -
27/07:00pm 11.5 N 7 8 1020.7 - 0.0 - - - - - - -
27/06:30pm 13.1 N 7 8 1020.5 - 0.0 - - - - - - -
27/06:00pm 15.7 N 5 7 1020.5 - 0.0 - - - - - - -
27/05:30pm 18.1 N 9 12 1020.2 - 0.0 - - - - - - -
27/05:00pm 20.5 NNW 11 15 1020.3 - 0.0 - - - - - - -
27/04:30pm 21.4 NNW 13 16 1020.2 - 0.0 - - - - - - -
27/04:00pm 21.8 NNW 13 19 1020.5 - 0.0 - - - - - - -
27/03:30pm 22.1 NNW 13 19 1020.8 - 0.0 - - - - - - -
27/03:00pm 21.8 NNW 14 19 1021.2 - 0.0 - - - - - - -
27/02:30pm 21.8 NNW 14 19 1021.6 - 0.0 - - - - - - -
27/02:00pm 21.5 N 15 22 1021.6 - 0.0 - - - - - - -
27/01:30pm 21.0 NW 17 23 1022.1 - 0.0 - - - - - - -
27/01:00pm 20.7 N 13 18 1022.8 - 0.0 - - - - - - -
27/12:30pm 18.9 N 14 19 1023.6 - 0.0 - - - - - - -
27/12:00pm 18.9 N 12 17 1024.6 - 0.0 - - - - - - -
27/11:30am 18.0 N 12 15 1025.2 - 0.0 - - - - - - -
27/11:00am 16.7 NNW 13 16 1025.8 - 0.0 - - - - - - -
27/10:30am 15.7 N 12 16 1026.0 - 0.0 - - - - - - -
27/10:00am 14.8 NNW 14 18 1026.0 - 0.0 - - - - - - -
27/09:30am 13.0 NNW 10 13 1026.0 - 0.0 - - - - - - -
27/09:00am 10.4 W 8 12 1025.7 - 0.0 - - - - - - -
27/08:30am 8.7 NW 7 9 1025.0 - 0.0 - - - - - - -
27/08:00am 6.6 NNW 7 10 1025.3 - 0.0 - - - - - - -
27/07:30am 5.3 NW 9 10 1025.7 - 0.0 - - - - - - -
27/07:00am 3.5 WNW 8 9 1025.8 - 0.0 - - - - - - -
27/06:30am 3.3 WNW 8 9 1025.6 - 0.0 - - - - - - -
27/06:00am 3.3 WNW 7 9 1025.3 - 0.0 - - - - - - -
27/05:30am 1.9 W 7 8 1025.3 - 0.0 - - - - - - -
27/05:00am 1.8 WSW 5 6 1025.2 - 0.0 - - - - - - -
27/04:30am 1.8 W 6 7 1025.1 - 0.0 - - - - - - -

Other Formats:

Comma delimited format used in spreadsheet applications
http://www.bom.gov.au/fwo/IDS60701/IDS60701.95666.axf

JavaScript Object Notation format (JSON) in row-major order
http://www.bom.gov.au/fwo/IDS60701/IDS60701.95666.json